EKKA

Karup Airport

Karup, Denmark
METAR EKKA 201420Z AUTO 28011KT 250V310 9999NDV NCD 24/09 Q1014
Observed Flight Rules
Jul-20 @ 14:20 UTC (11 minutes ago)
Wind Clouds
280° at 11 knots
  • Clear skies
Temperatures Readings
Current 24°C / 75°F
Dewpoint 9°C / 48°F
Humidity 39%
Altimeter 29.94" Hg
Pressure 1014 hPa
Elevation 52
METAR EKKA 201420Z AUTO 28011KT 250V310 9999NDV NCD 24/09 Q1014
Observed Flight Rules
Jul-20 @ 14:20 UTC
(11 minutes ago)
Wind
280° at 11 knots
Clouds
  • Clear skies
Temperature Dewpoint
24°C / 75°F 9°C / 48°F
Humidity Altimeter Pressure
39% 29.94" Hg 1014 hPa